createdAt,value
2022-09-21T00:03:37.751Z,68.94
2022-09-21T00:08:41.407Z,68.75
2022-09-21T00:13:46.969Z,68.57
2022-09-21T00:18:50.141Z,68.47
2022-09-21T00:23:54.441Z,68.38
2022-09-21T00:28:59.575Z,68.52
2022-09-21T00:34:03.827Z,68.25
2022-09-21T00:39:07.166Z,68.37
2022-09-21T00:44:18.853Z,68.52
2022-09-21T00:49:22.620Z,68.41
2022-09-21T00:54:34.346Z,68.38
2022-09-21T00:59:39.755Z,68.25
2022-09-21T01:04:43.428Z,68.45
2022-09-21T01:09:50.151Z,68.42
2022-09-21T01:15:18.520Z,68.58
2022-09-21T01:20:42.852Z,68.71
2022-09-21T01:26:06.841Z,68.51
2022-09-21T01:31:20.933Z,68.98
2022-09-21T01:36:28.586Z,68.80
2022-09-21T01:41:32.954Z,68.62
2022-09-21T01:46:38.314Z,68.79
2022-09-21T01:51:48.518Z,69.14
2022-09-21T01:57:06.871Z,68.83
2022-09-21T02:02:15.988Z,69.23
2022-09-21T02:07:19.610Z,69.22
2022-09-21T02:12:23.148Z,69.29
2022-09-21T02:17:53.203Z,69.21
2022-09-21T02:22:55.939Z,69.22
2022-09-21T02:28:09.280Z,69.06
2022-09-21T02:33:19.941Z,69.12
2022-09-21T02:38:33.634Z,69.56
2022-09-21T02:43:46.948Z,69.56
2022-09-21T02:48:56.910Z,69.28
2022-09-21T02:54:04.711Z,69.40
2022-09-21T02:59:08.333Z,69.15
2022-09-21T03:04:11.399Z,69.53
2022-09-21T03:09:14.353Z,69.69
2022-09-21T03:14:17.355Z,69.74
2022-09-21T03:19:20.283Z,69.81
2022-09-21T03:24:42.111Z,69.66
2022-09-21T03:29:46.033Z,69.63
2022-09-21T03:34:48.880Z,69.80
2022-09-21T03:39:52.074Z,70.27
2022-09-21T03:44:54.912Z,69.83
2022-09-21T03:49:57.691Z,69.96
2022-09-21T03:55:00.567Z,70.13
2022-09-21T04:00:07.880Z,69.92
2022-09-21T04:05:15.061Z,70.22
2022-09-21T04:10:21.446Z,69.98
2022-09-21T04:15:24.453Z,69.98
2022-09-21T04:20:28.393Z,70.41
2022-09-21T04:25:31.208Z,70.27
2022-09-21T04:30:37.726Z,70.42
2022-09-21T04:35:41.238Z,70.37
2022-09-21T04:40:44.044Z,70.29
2022-09-21T04:45:47.004Z,70.06
2022-09-21T04:50:51.100Z,70.31
2022-09-21T04:55:54.769Z,70.39
2022-09-21T05:00:57.852Z,70.40
2022-09-21T05:06:01.088Z,70.24
2022-09-21T05:11:05.652Z,70.13
2022-09-21T05:16:09.529Z,70.41
2022-09-21T05:21:14.004Z,70.01
2022-09-21T05:26:16.898Z,70.19
2022-09-21T05:31:32.925Z,70.36
2022-09-21T05:36:46.497Z,70.07
2022-09-21T05:41:49.764Z,70.02
2022-09-21T05:47:13.458Z,70.25
2022-09-21T05:52:40.315Z,70.22
2022-09-21T05:58:06.207Z,70.32
2022-09-21T06:03:32.431Z,70.29
2022-09-21T06:08:35.504Z,70.81
2022-09-21T06:13:38.532Z,70.66
2022-09-21T06:18:42.543Z,70.45
2022-09-21T06:23:49.405Z,70.39
2022-09-21T06:28:52.225Z,70.50
2022-09-21T06:33:55.181Z,70.83
2022-09-21T06:38:58.084Z,70.81
2022-09-21T06:44:01.456Z,70.83
2022-09-21T06:49:04.550Z,70.51
2022-09-21T06:54:08.193Z,70.75
2022-09-21T06:59:16.278Z,70.70
2022-09-21T07:04:24.999Z,70.81
2022-09-21T07:14:51.248Z,71.06
2022-09-21T07:19:54.043Z,70.69
2022-09-21T07:24:58.092Z,70.53
2022-09-21T07:30:00.956Z,70.87
2022-09-21T07:35:04.396Z,70.58
2022-09-21T07:40:08.141Z,70.81
2022-09-21T07:45:11.464Z,70.55
2022-09-21T07:50:14.782Z,70.41
2022-09-21T07:55:17.712Z,70.18
2022-09-21T08:00:21.290Z,70.07
2022-09-21T08:05:24.524Z,70.25
2022-09-21T08:10:28.818Z,70.58
2022-09-21T08:15:48.677Z,70.58
2022-09-21T08:20:56.222Z,70.45
2022-09-21T08:26:05.686Z,70.50
2022-09-21T08:31:10.150Z,70.67
2022-09-21T08:36:13.234Z,70.91
2022-09-21T08:41:46.412Z,70.88
2022-09-21T08:47:03.752Z,70.80
2022-09-21T08:52:16.180Z,70.47
2022-09-21T08:57:22.198Z,70.45
2022-09-21T09:02:46.075Z,70.33
2022-09-21T09:08:18.167Z,70.47
2022-09-21T09:13:42.747Z,70.68
2022-09-21T09:18:53.035Z,70.90
2022-09-21T09:24:05.645Z,70.84
2022-09-21T09:29:25.144Z,70.65
2022-09-21T09:34:39.051Z,70.61
2022-09-21T09:39:45.624Z,70.25
2022-09-21T09:45:13.475Z,70.19
2022-09-21T09:50:32.038Z,69.87
2022-09-21T09:55:49.061Z,69.55
2022-09-21T10:00:54.368Z,69.48
2022-09-21T10:06:00.309Z,69.31
2022-09-21T10:11:04.280Z,69.17
2022-09-21T10:16:10.171Z,69.08
2022-09-21T10:21:21.554Z,69.01
2022-09-21T10:26:24.621Z,68.72
2022-09-21T10:31:30.099Z,68.92
2022-09-21T10:36:36.349Z,69.00
2022-09-21T10:41:39.192Z,69.10
2022-09-21T10:46:42.232Z,69.40
2022-09-21T10:51:47.223Z,69.46
2022-09-21T10:56:53.666Z,69.43
2022-09-21T11:02:00.419Z,69.29
2022-09-21T11:07:39.248Z,69.23
2022-09-21T11:13:18.976Z,69.08
2022-09-21T11:18:34.485Z,69.01
2022-09-21T11:24:05.328Z,69.15
2022-09-21T11:29:47.488Z,69.28
2022-09-21T11:34:56.186Z,69.88
2022-09-21T11:40:25.582Z,69.43
2022-09-21T11:45:34.374Z,69.17
2022-09-21T11:56:13.041Z,68.95
2022-09-21T12:01:36.340Z,70.38
2022-09-21T12:07:13.136Z,69.44
2022-09-21T12:12:25.896Z,67.49
2022-09-21T12:18:07.650Z,66.89
2022-09-21T12:23:19.493Z,66.12
2022-09-21T12:28:32.136Z,65.41
2022-09-21T12:33:48.418Z,64.90
2022-09-21T12:38:58.546Z,64.67
2022-09-21T12:44:33.875Z,64.90
2022-09-21T12:49:46.564Z,64.70
2022-09-21T12:55:21.920Z,64.91
2022-09-21T13:00:30.954Z,65.16
2022-09-21T13:05:43.631Z,64.40
2022-09-21T13:10:54.755Z,63.92
2022-09-21T13:15:59.743Z,63.49
2022-09-21T13:21:17.068Z,62.96
2022-09-21T13:26:38.186Z,62.67
2022-09-21T13:31:54.458Z,62.34
2022-09-21T13:37:16.060Z,62.31
2022-09-21T13:42:31.137Z,62.29
2022-09-21T13:47:38.641Z,62.09
2022-09-21T13:52:48.198Z,62.30
2022-09-21T13:57:55.823Z,62.42
2022-09-21T14:03:04.632Z,62.47
2022-09-21T14:08:22.278Z,62.28
2022-09-21T14:13:36.285Z,62.33
2022-09-21T14:18:39.291Z,62.44
2022-09-21T14:24:02.319Z,62.28
2022-09-21T14:29:19.649Z,62.26
2022-09-21T14:34:26.564Z,61.80
2022-09-21T14:39:33.762Z,61.24
2022-09-21T14:44:39.435Z,61.26
2022-09-21T14:49:54.669Z,61.05
2022-09-21T14:55:15.938Z,61.04
2022-09-21T15:00:26.637Z,61.21
2022-09-21T15:05:43.464Z,61.41
2022-09-21T15:11:13.766Z,61.64
2022-09-21T15:16:22.624Z,61.61
2022-09-21T15:21:30.403Z,61.56
2022-09-21T15:26:34.568Z,61.56
2022-09-21T15:31:40.905Z,61.40
2022-09-21T15:36:44.957Z,61.38
2022-09-21T15:41:50.728Z,61.60
2022-09-21T15:47:01.176Z,61.62
2022-09-21T15:52:29.475Z,61.57
2022-09-21T15:57:40.633Z,61.75
2022-09-21T16:02:55.965Z,61.93
2022-09-21T16:08:35.600Z,61.68
2022-09-21T16:13:56.917Z,61.46
2022-09-21T16:19:00.325Z,60.91
2022-09-21T16:24:18.998Z,60.83
2022-09-21T16:29:26.529Z,61.16
2022-09-21T16:34:35.344Z,61.54
2022-09-21T16:39:38.272Z,61.94
2022-09-21T16:44:44.918Z,62.02
2022-09-21T16:49:47.987Z,62.45
2022-09-21T16:54:51.773Z,62.60
2022-09-21T16:59:54.795Z,62.93
2022-09-21T17:04:59.441Z,62.66
2022-09-21T17:10:14.922Z,62.97
2022-09-21T17:15:17.939Z,63.47
2022-09-21T17:20:33.389Z,63.59
2022-09-21T17:25:37.238Z,64.23
2022-09-21T17:30:42.658Z,64.45
2022-09-21T17:35:45.992Z,64.67
2022-09-21T17:40:49.186Z,64.84
2022-09-21T17:46:08.548Z,64.97
2022-09-21T17:51:12.269Z,64.98
2022-09-21T17:56:45.585Z,65.06
2022-09-21T18:01:48.792Z,65.25
2022-09-21T18:06:51.945Z,65.27
2022-09-21T18:12:04.230Z,65.57
2022-09-21T18:17:24.387Z,65.86
2022-09-21T18:23:14.377Z,65.77
2022-09-21T18:28:27.458Z,66.14
2022-09-21T18:34:13.220Z,66.25
2022-09-21T18:39:26.364Z,66.35
2022-09-21T18:44:39.637Z,66.47
2022-09-21T18:50:00.454Z,66.64
2022-09-21T18:55:26.881Z,66.69
2022-09-21T19:00:35.487Z,67.11
2022-09-21T19:05:46.366Z,67.38
2022-09-21T19:10:57.430Z,67.37
2022-09-21T19:16:45.928Z,67.30
2022-09-21T19:22:00.846Z,67.86
2022-09-21T19:27:39.249Z,67.92
2022-09-21T19:32:46.501Z,67.98
2022-09-21T19:37:52.279Z,68.07
2022-09-21T19:43:22.722Z,68.07
2022-09-21T19:48:27.914Z,68.06
2022-09-21T19:53:50.960Z,68.08
2022-09-21T19:59:12.843Z,68.07
2022-09-21T20:04:15.889Z,67.98
2022-09-21T20:09:26.227Z,68.21
2022-09-21T20:14:38.136Z,68.17
2022-09-21T20:19:51.635Z,68.48
2022-09-21T20:25:10.553Z,68.30
2022-09-21T20:30:16.788Z,68.27
2022-09-21T20:35:23.270Z,68.52
2022-09-21T20:40:29.021Z,68.69
2022-09-21T20:45:33.252Z,68.53
2022-09-21T20:50:37.498Z,68.62
2022-09-21T20:55:41.387Z,68.78
2022-09-21T21:00:46.249Z,68.99
2022-09-21T21:05:49.144Z,68.56
2022-09-21T21:10:55.788Z,68.73
2022-09-21T21:16:00.336Z,68.74
2022-09-21T21:21:04.772Z,68.64
2022-09-21T21:26:08.085Z,68.64
2022-09-21T21:31:12.061Z,68.58
2022-09-21T21:36:15.206Z,68.96
2022-09-21T21:41:18.455Z,68.60
2022-09-21T21:46:21.392Z,68.56
2022-09-21T21:51:24.323Z,68.58
2022-09-21T21:56:27.904Z,68.79
2022-09-21T22:01:31.351Z,69.00
2022-09-21T22:06:36.553Z,68.89
2022-09-21T22:11:39.476Z,68.91
2022-09-21T22:16:42.443Z,68.74
2022-09-21T22:21:51.735Z,68.84
2022-09-21T22:26:57.038Z,68.56
2022-09-21T22:32:00.745Z,68.58
2022-09-21T22:37:03.796Z,68.92
2022-09-21T22:42:06.731Z,68.86
2022-09-21T22:47:09.598Z,69.05
2022-09-21T22:52:12.918Z,68.78
2022-09-21T22:57:15.778Z,68.92
2022-09-21T23:02:18.706Z,68.67
2022-09-21T23:07:21.556Z,68.63
2022-09-21T23:12:24.390Z,69.00
2022-09-21T23:17:29.094Z,68.85
2022-09-21T23:22:32.016Z,68.89
2022-09-21T23:27:34.876Z,68.96
2022-09-21T23:32:37.841Z,69.37
2022-09-21T23:37:40.763Z,69.00
2022-09-21T23:42:43.662Z,69.01
2022-09-21T23:47:46.510Z,69.33
2022-09-21T23:52:49.415Z,69.49
2022-09-21T23:57:52.249Z,69.43
